sensor_id;sensor_type;location;lat;lon;timestamp;P1;durP1;ratioP1;P2;durP2;ratioP2
78732;SDS011;68056;52.530;5.454;2023-03-14T00:00:09;14.05;;;2.50;;
78732;SDS011;68056;52.530;5.454;2023-03-14T00:02:38;9.43;;;1.58;;
78732;SDS011;68056;52.530;5.454;2023-03-14T00:05:04;12.40;;;2.05;;
78732;SDS011;68056;52.530;5.454;2023-03-14T00:10:06;8.48;;;2.97;;
78732;SDS011;68056;52.530;5.454;2023-03-14T00:12:34;11.48;;;2.22;;
78732;SDS011;68056;52.530;5.454;2023-03-14T00:14:59;6.63;;;1.75;;
78732;SDS011;68056;52.530;5.454;2023-03-14T00:17:28;10.23;;;1.95;;
78732;SDS011;68056;52.530;5.454;2023-03-14T00:19:54;8.43;;;1.85;;
78732;SDS011;68056;52.530;5.454;2023-03-14T00:22:20;10.50;;;1.75;;
78732;SDS011;68056;52.530;5.454;2023-03-14T00:24:46;14.80;;;2.20;;
78732;SDS011;68056;52.530;5.454;2023-03-14T00:27:12;8.55;;;2.03;;
78732;SDS011;68056;52.530;5.454;2023-03-14T00:29:38;10.85;;;1.90;;
78732;SDS011;68056;52.530;5.454;2023-03-14T00:32:03;7.18;;;1.85;;
78732;SDS011;68056;52.530;5.454;2023-03-14T00:34:30;8.93;;;1.52;;
78732;SDS011;68056;52.530;5.454;2023-03-14T00:36:56;6.15;;;1.45;;
78732;SDS011;68056;52.530;5.454;2023-03-14T00:39:21;6.72;;;1.95;;
78732;SDS011;68056;52.530;5.454;2023-03-14T00:41:47;11.85;;;1.65;;
78732;SDS011;68056;52.530;5.454;2023-03-14T00:44:13;9.52;;;1.80;;
78732;SDS011;68056;52.530;5.454;2023-03-14T00:46:38;8.10;;;2.30;;
78732;SDS011;68056;52.530;5.454;2023-03-14T00:49:04;5.88;;;1.30;;
78732;SDS011;68056;52.530;5.454;2023-03-14T00:51:29;8.85;;;1.60;;
78732;SDS011;68056;52.530;5.454;2023-03-14T00:53:55;4.55;;;1.48;;
78732;SDS011;68056;52.530;5.454;2023-03-14T00:56:21;8.35;;;1.50;;
78732;SDS011;68056;52.530;5.454;2023-03-14T00:58:46;6.30;;;1.40;;
78732;SDS011;68056;52.530;5.454;2023-03-14T01:01:13;7.90;;;2.22;;
78732;SDS011;68056;52.530;5.454;2023-03-14T01:03:43;14.50;;;2.15;;
78732;SDS011;68056;52.530;5.454;2023-03-14T01:06:14;3.70;;;1.08;;
78732;SDS011;68056;52.530;5.454;2023-03-14T01:08:42;7.60;;;1.85;;
78732;SDS011;68056;52.530;5.454;2023-03-14T01:11:09;7.10;;;1.40;;
78732;SDS011;68056;52.530;5.454;2023-03-14T01:13:40;6.15;;;1.70;;
78732;SDS011;68056;52.530;5.454;2023-03-14T01:16:07;6.13;;;1.60;;
78732;SDS011;68056;52.530;5.454;2023-03-14T01:18:34;9.40;;;1.55;;
78732;SDS011;68056;52.530;5.454;2023-03-14T01:21:01;8.15;;;1.55;;
78732;SDS011;68056;52.530;5.454;2023-03-14T01:23:28;6.75;;;1.63;;
78732;SDS011;68056;52.530;5.454;2023-03-14T01:25:54;7.30;;;1.70;;
78732;SDS011;68056;52.530;5.454;2023-03-14T01:28:19;6.38;;;1.77;;
78732;SDS011;68056;52.530;5.454;2023-03-14T01:30:45;9.25;;;1.73;;
78732;SDS011;68056;52.530;5.454;2023-03-14T01:33:11;5.30;;;1.50;;
78732;SDS011;68056;52.530;5.454;2023-03-14T01:35:38;5.43;;;1.20;;
78732;SDS011;68056;52.530;5.454;2023-03-14T01:38:03;7.70;;;1.35;;
78732;SDS011;68056;52.530;5.454;2023-03-14T01:40:29;6.85;;;1.20;;
78732;SDS011;68056;52.530;5.454;2023-03-14T01:42:55;6.93;;;0.98;;
78732;SDS011;68056;52.530;5.454;2023-03-14T01:48:25;3.58;;;1.20;;
78732;SDS011;68056;52.530;5.454;2023-03-14T01:50:56;7.13;;;1.42;;
78732;SDS011;68056;52.530;5.454;2023-03-14T01:53:24;4.70;;;1.40;;
78732;SDS011;68056;52.530;5.454;2023-03-14T01:55:50;10.25;;;1.70;;
78732;SDS011;68056;52.530;5.454;2023-03-14T01:58:18;12.25;;;1.77;;
78732;SDS011;68056;52.530;5.454;2023-03-14T02:00:45;5.80;;;1.63;;
78732;SDS011;68056;52.530;5.454;2023-03-14T02:03:13;13.32;;;1.73;;
78732;SDS011;68056;52.530;5.454;2023-03-14T02:05:42;5.53;;;1.42;;
78732;SDS011;68056;52.530;5.454;2023-03-14T02:08:13;5.22;;;2.08;;
78732;SDS011;68056;52.530;5.454;2023-03-14T02:10:41;10.60;;;2.17;;
78732;SDS011;68056;52.530;5.454;2023-03-14T02:13:09;8.35;;;1.40;;
78732;SDS011;68056;52.530;5.454;2023-03-14T02:15:36;9.68;;;2.22;;
78732;SDS011;68056;52.530;5.454;2023-03-14T02:18:03;9.27;;;1.90;;
78732;SDS011;68056;52.530;5.454;2023-03-14T02:23:36;7.43;;;1.75;;
78732;SDS011;68056;52.530;5.454;2023-03-14T02:26:08;7.30;;;1.73;;
78732;SDS011;68056;52.530;5.454;2023-03-14T02:28:38;8.60;;;1.98;;
78732;SDS011;68056;52.530;5.454;2023-03-14T02:31:04;10.32;;;1.92;;
78732;SDS011;68056;52.530;5.454;2023-03-14T02:33:30;10.90;;;1.95;;
78732;SDS011;68056;52.530;5.454;2023-03-14T02:35:57;8.55;;;1.83;;
78732;SDS011;68056;52.530;5.454;2023-03-14T02:38:33;12.35;;;2.17;;
78732;SDS011;68056;52.530;5.454;2023-03-14T02:41:04;11.50;;;2.10;;
78732;SDS011;68056;52.530;5.454;2023-03-14T02:43:30;6.30;;;1.60;;
78732;SDS011;68056;52.530;5.454;2023-03-14T02:45:56;8.70;;;2.30;;
78732;SDS011;68056;52.530;5.454;2023-03-14T02:48:24;10.02;;;1.90;;
78732;SDS011;68056;52.530;5.454;2023-03-14T02:50:57;13.70;;;2.22;;
78732;SDS011;68056;52.530;5.454;2023-03-14T02:53:26;12.13;;;2.10;;
78732;SDS011;68056;52.530;5.454;2023-03-14T02:55:54;7.88;;;2.47;;
78732;SDS011;68056;52.530;5.454;2023-03-14T02:58:19;10.85;;;2.40;;
78732;SDS011;68056;52.530;5.454;2023-03-14T03:00:45;9.90;;;2.35;;
78732;SDS011;68056;52.530;5.454;2023-03-14T03:03:11;9.48;;;2.53;;
78732;SDS011;68056;52.530;5.454;2023-03-14T03:05:37;8.27;;;2.55;;
78732;SDS011;68056;52.530;5.454;2023-03-14T03:08:03;9.93;;;2.65;;
78732;SDS011;68056;52.530;5.454;2023-03-14T03:10:29;12.35;;;3.53;;
78732;SDS011;68056;52.530;5.454;2023-03-14T03:12:56;9.77;;;2.90;;
78732;SDS011;68056;52.530;5.454;2023-03-14T03:15:22;8.45;;;2.60;;
78732;SDS011;68056;52.530;5.454;2023-03-14T03:17:47;8.35;;;3.25;;
78732;SDS011;68056;52.530;5.454;2023-03-14T03:20:13;10.95;;;2.58;;
78732;SDS011;68056;52.530;5.454;2023-03-14T03:22:39;9.57;;;2.22;;
78732;SDS011;68056;52.530;5.454;2023-03-14T03:25:05;12.43;;;2.92;;
78732;SDS011;68056;52.530;5.454;2023-03-14T03:27:33;6.30;;;2.42;;
78732;SDS011;68056;52.530;5.454;2023-03-14T03:30:00;11.57;;;3.53;;
78732;SDS011;68056;52.530;5.454;2023-03-14T03:32:25;9.15;;;2.40;;
78732;SDS011;68056;52.530;5.454;2023-03-14T03:34:55;9.43;;;2.28;;
78732;SDS011;68056;52.530;5.454;2023-03-14T03:37:20;8.07;;;2.38;;
78732;SDS011;68056;52.530;5.454;2023-03-14T03:39:46;8.98;;;2.55;;
78732;SDS011;68056;52.530;5.454;2023-03-14T03:42:11;7.10;;;2.17;;
78732;SDS011;68056;52.530;5.454;2023-03-14T03:44:37;6.65;;;1.60;;
78732;SDS011;68056;52.530;5.454;2023-03-14T03:47:03;6.25;;;1.52;;
78732;SDS011;68056;52.530;5.454;2023-03-14T03:49:32;10.25;;;1.73;;
78732;SDS011;68056;52.530;5.454;2023-03-14T03:51:58;6.38;;;1.38;;
78732;SDS011;68056;52.530;5.454;2023-03-14T03:54:24;4.18;;;1.70;;
78732;SDS011;68056;52.530;5.454;2023-03-14T03:56:50;5.55;;;1.48;;
78732;SDS011;68056;52.530;5.454;2023-03-14T03:59:16;6.20;;;1.92;;
78732;SDS011;68056;52.530;5.454;2023-03-14T04:01:41;10.07;;;1.98;;
78732;SDS011;68056;52.530;5.454;2023-03-14T04:04:07;9.20;;;1.77;;
78732;SDS011;68056;52.530;5.454;2023-03-14T04:06:32;7.00;;;1.90;;
78732;SDS011;68056;52.530;5.454;2023-03-14T04:08:58;8.15;;;1.80;;
78732;SDS011;68056;52.530;5.454;2023-03-14T04:11:24;6.18;;;1.90;;
78732;SDS011;68056;52.530;5.454;2023-03-14T04:13:49;4.72;;;1.70;;
78732;SDS011;68056;52.530;5.454;2023-03-14T04:16:23;5.97;;;1.70;;
78732;SDS011;68056;52.530;5.454;2023-03-14T04:18:49;6.22;;;1.83;;
78732;SDS011;68056;52.530;5.454;2023-03-14T04:21:15;9.35;;;1.98;;
78732;SDS011;68056;52.530;5.454;2023-03-14T04:23:42;6.65;;;1.77;;
78732;SDS011;68056;52.530;5.454;2023-03-14T04:26:07;5.15;;;1.85;;
78732;SDS011;68056;52.530;5.454;2023-03-14T04:28:33;5.43;;;1.80;;
78732;SDS011;68056;52.530;5.454;2023-03-14T04:33:31;6.05;;;1.63;;
78732;SDS011;68056;52.530;5.454;2023-03-14T04:35:58;8.93;;;2.40;;
78732;SDS011;68056;52.530;5.454;2023-03-14T04:38:23;7.65;;;2.00;;
78732;SDS011;68056;52.530;5.454;2023-03-14T04:40:49;9.80;;;2.17;;
78732;SDS011;68056;52.530;5.454;2023-03-14T04:43:14;12.93;;;2.10;;
78732;SDS011;68056;52.530;5.454;2023-03-14T04:45:43;8.65;;;2.20;;
78732;SDS011;68056;52.530;5.454;2023-03-14T04:48:09;6.60;;;2.47;;
78732;SDS011;68056;52.530;5.454;2023-03-14T04:50:34;5.10;;;2.45;;
78732;SDS011;68056;52.530;5.454;2023-03-14T04:53:00;9.73;;;2.50;;
78732;SDS011;68056;52.530;5.454;2023-03-14T04:55:26;9.20;;;2.38;;
78732;SDS011;68056;52.530;5.454;2023-03-14T04:57:52;10.68;;;2.85;;
78732;SDS011;68056;52.530;5.454;2023-03-14T05:00:17;12.23;;;3.10;;
78732;SDS011;68056;52.530;5.454;2023-03-14T05:02:43;6.47;;;2.53;;
78732;SDS011;68056;52.530;5.454;2023-03-14T05:05:10;8.02;;;2.25;;
78732;SDS011;68056;52.530;5.454;2023-03-14T05:07:35;10.52;;;3.05;;
78732;SDS011;68056;52.530;5.454;2023-03-14T05:10:01;10.63;;;3.30;;
78732;SDS011;68056;52.530;5.454;2023-03-14T05:12:27;6.53;;;2.22;;
78732;SDS011;68056;52.530;5.454;2023-03-14T05:14:52;6.63;;;2.63;;
78732;SDS011;68056;52.530;5.454;2023-03-14T05:17:18;8.50;;;2.60;;
78732;SDS011;68056;52.530;5.454;2023-03-14T05:19:44;12.27;;;3.95;;
78732;SDS011;68056;52.530;5.454;2023-03-14T05:22:10;8.43;;;2.90;;
78732;SDS011;68056;52.530;5.454;2023-03-14T05:24:36;9.57;;;2.88;;
78732;SDS011;68056;52.530;5.454;2023-03-14T05:27:02;11.65;;;3.60;;
78732;SDS011;68056;52.530;5.454;2023-03-14T05:29:28;12.30;;;2.83;;
78732;SDS011;68056;52.530;5.454;2023-03-14T05:31:54;6.43;;;2.28;;
78732;SDS011;68056;52.530;5.454;2023-03-14T05:34:19;7.90;;;2.40;;
78732;SDS011;68056;52.530;5.454;2023-03-14T05:36:45;5.60;;;1.95;;
78732;SDS011;68056;52.530;5.454;2023-03-14T05:39:10;9.77;;;3.40;;
78732;SDS011;68056;52.530;5.454;2023-03-14T05:41:36;10.75;;;3.20;;
78732;SDS011;68056;52.530;5.454;2023-03-14T05:44:02;10.35;;;2.38;;
78732;SDS011;68056;52.530;5.454;2023-03-14T05:46:27;7.78;;;2.35;;
78732;SDS011;68056;52.530;5.454;2023-03-14T05:48:55;9.13;;;2.78;;
78732;SDS011;68056;52.530;5.454;2023-03-14T05:51:21;6.75;;;2.65;;
78732;SDS011;68056;52.530;5.454;2023-03-14T05:53:47;12.05;;;2.78;;
78732;SDS011;68056;52.530;5.454;2023-03-14T05:56:12;8.30;;;2.63;;
78732;SDS011;68056;52.530;5.454;2023-03-14T05:58:38;8.00;;;2.88;;
78732;SDS011;68056;52.530;5.454;2023-03-14T06:01:04;4.97;;;2.20;;
78732;SDS011;68056;52.530;5.454;2023-03-14T06:03:30;6.00;;;2.58;;
78732;SDS011;68056;52.530;5.454;2023-03-14T06:05:56;6.15;;;2.15;;
78732;SDS011;68056;52.530;5.454;2023-03-14T06:08:22;5.10;;;2.22;;
78732;SDS011;68056;52.530;5.454;2023-03-14T06:10:48;5.70;;;2.58;;
78732;SDS011;68056;52.530;5.454;2023-03-14T06:13:14;9.07;;;2.42;;
78732;SDS011;68056;52.530;5.454;2023-03-14T06:15:40;3.45;;;1.00;;
78732;SDS011;68056;52.530;5.454;2023-03-14T06:18:06;3.35;;;0.55;;
78732;SDS011;68056;52.530;5.454;2023-03-14T06:20:32;3.13;;;0.57;;
78732;SDS011;68056;52.530;5.454;2023-03-14T06:22:58;3.72;;;0.63;;
78732;SDS011;68056;52.530;5.454;2023-03-14T06:25:24;2.33;;;0.50;;
78732;SDS011;68056;52.530;5.454;2023-03-14T06:27:50;2.33;;;0.40;;
78732;SDS011;68056;52.530;5.454;2023-03-14T06:30:15;1.55;;;0.30;;
78732;SDS011;68056;52.530;5.454;2023-03-14T06:32:41;1.25;;;0.50;;
78732;SDS011;68056;52.530;5.454;2023-03-14T06:35:07;0.70;;;0.22;;
78732;SDS011;68056;52.530;5.454;2023-03-14T06:37:33;2.15;;;0.70;;
78732;SDS011;68056;52.530;5.454;2023-03-14T06:39:59;1.85;;;0.28;;
78732;SDS011;68056;52.530;5.454;2023-03-14T06:42:24;1.58;;;0.30;;
78732;SDS011;68056;52.530;5.454;2023-03-14T06:44:50;1.30;;;0.45;;
78732;SDS011;68056;52.530;5.454;2023-03-14T06:47:16;0.85;;;0.30;;
78732;SDS011;68056;52.530;5.454;2023-03-14T06:49:41;2.08;;;0.40;;
78732;SDS011;68056;52.530;5.454;2023-03-14T06:52:07;1.23;;;0.40;;
78732;SDS011;68056;52.530;5.454;2023-03-14T06:54:32;2.00;;;0.47;;
78732;SDS011;68056;52.530;5.454;2023-03-14T06:56:58;3.33;;;0.60;;
78732;SDS011;68056;52.530;5.454;2023-03-14T06:59:23;0.80;;;0.22;;
78732;SDS011;68056;52.530;5.454;2023-03-14T07:01:49;2.13;;;0.40;;
78732;SDS011;68056;52.530;5.454;2023-03-14T07:04:15;6.78;;;0.57;;
78732;SDS011;68056;52.530;5.454;2023-03-14T07:06:42;4.80;;;0.73;;
78732;SDS011;68056;52.530;5.454;2023-03-14T07:09:09;4.60;;;0.80;;
78732;SDS011;68056;52.530;5.454;2023-03-14T07:11:36;2.72;;;0.68;;
78732;SDS011;68056;52.530;5.454;2023-03-14T07:14:02;3.95;;;0.60;;
78732;SDS011;68056;52.530;5.454;2023-03-14T07:16:28;4.05;;;0.70;;
78732;SDS011;68056;52.530;5.454;2023-03-14T07:18:56;7.35;;;0.88;;
78732;SDS011;68056;52.530;5.454;2023-03-14T07:21:22;4.35;;;0.95;;
78732;SDS011;68056;52.530;5.454;2023-03-14T07:23:47;5.30;;;0.65;;
78732;SDS011;68056;52.530;5.454;2023-03-14T07:26:13;3.15;;;0.70;;
78732;SDS011;68056;52.530;5.454;2023-03-14T07:28:39;7.32;;;0.90;;
78732;SDS011;68056;52.530;5.454;2023-03-14T07:31:04;5.03;;;0.80;;
78732;SDS011;68056;52.530;5.454;2023-03-14T07:33:30;7.00;;;0.77;;
78732;SDS011;68056;52.530;5.454;2023-03-14T07:35:56;2.35;;;0.30;;
78732;SDS011;68056;52.530;5.454;2023-03-14T07:38:21;1.45;;;0.45;;
78732;SDS011;68056;52.530;5.454;2023-03-14T07:40:47;2.53;;;0.30;;
78732;SDS011;68056;52.530;5.454;2023-03-14T07:43:12;2.00;;;0.30;;
78732;SDS011;68056;52.530;5.454;2023-03-14T07:45:38;4.13;;;0.65;;
78732;SDS011;68056;52.530;5.454;2023-03-14T07:48:03;1.25;;;0.50;;
78732;SDS011;68056;52.530;5.454;2023-03-14T07:50:29;3.92;;;0.60;;
78732;SDS011;68056;52.530;5.454;2023-03-14T07:52:55;1.98;;;0.30;;
78732;SDS011;68056;52.530;5.454;2023-03-14T07:55:20;3.75;;;0.47;;
78732;SDS011;68056;52.530;5.454;2023-03-14T07:57:46;0.68;;;0.55;;
78732;SDS011;68056;52.530;5.454;2023-03-14T08:00:12;1.95;;;0.30;;
78732;SDS011;68056;52.530;5.454;2023-03-14T08:02:42;3.05;;;0.60;;
78732;SDS011;68056;52.530;5.454;2023-03-14T08:05:07;2.17;;;0.30;;
78732;SDS011;68056;52.530;5.454;2023-03-14T08:07:34;4.20;;;0.50;;
78732;SDS011;68056;52.530;5.454;2023-03-14T08:09:59;2.20;;;0.20;;
78732;SDS011;68056;52.530;5.454;2023-03-14T08:12:25;2.03;;;0.15;;
78732;SDS011;68056;52.530;5.454;2023-03-14T08:14:50;2.38;;;1.00;;
78732;SDS011;68056;52.530;5.454;2023-03-14T08:17:16;2.00;;;0.30;;
78732;SDS011;68056;52.530;5.454;2023-03-14T08:19:41;3.17;;;0.50;;
78732;SDS011;68056;52.530;5.454;2023-03-14T08:22:07;2.65;;;0.45;;
78732;SDS011;68056;52.530;5.454;2023-03-14T08:24:33;1.98;;;0.40;;
78732;SDS011;68056;52.530;5.454;2023-03-14T08:26:59;1.77;;;0.30;;
78732;SDS011;68056;52.530;5.454;2023-03-14T08:29:24;3.90;;;0.50;;
78732;SDS011;68056;52.530;5.454;2023-03-14T08:31:50;4.75;;;0.65;;
78732;SDS011;68056;52.530;5.454;2023-03-14T08:34:15;1.52;;;0.50;;
78732;SDS011;68056;52.530;5.454;2023-03-14T08:36:41;4.20;;;0.45;;
78732;SDS011;68056;52.530;5.454;2023-03-14T08:39:07;4.78;;;0.75;;
78732;SDS011;68056;52.530;5.454;2023-03-14T08:41:33;3.75;;;0.80;;
78732;SDS011;68056;52.530;5.454;2023-03-14T08:44:05;2.72;;;0.57;;
78732;SDS011;68056;52.530;5.454;2023-03-14T08:46:31;7.38;;;1.00;;
78732;SDS011;68056;52.530;5.454;2023-03-14T08:48:57;4.63;;;0.88;;
78732;SDS011;68056;52.530;5.454;2023-03-14T08:51:22;2.28;;;0.57;;
78732;SDS011;68056;52.530;5.454;2023-03-14T08:53:48;6.93;;;0.77;;
78732;SDS011;68056;52.530;5.454;2023-03-14T08:56:13;4.88;;;0.95;;
78732;SDS011;68056;52.530;5.454;2023-03-14T08:58:39;4.95;;;0.70;;
78732;SDS011;68056;52.530;5.454;2023-03-14T09:01:07;6.93;;;1.20;;
78732;SDS011;68056;52.530;5.454;2023-03-14T09:03:33;5.80;;;1.58;;
78732;SDS011;68056;52.530;5.454;2023-03-14T09:06:03;6.70;;;1.20;;
78732;SDS011;68056;52.530;5.454;2023-03-14T09:08:30;8.13;;;0.93;;
78732;SDS011;68056;52.530;5.454;2023-03-14T09:10:56;11.23;;;1.60;;
78732;SDS011;68056;52.530;5.454;2023-03-14T09:13:22;8.38;;;0.90;;
78732;SDS011;68056;52.530;5.454;2023-03-14T09:15:51;8.00;;;1.60;;
78732;SDS011;68056;52.530;5.454;2023-03-14T09:18:18;7.20;;;1.02;;
78732;SDS011;68056;52.530;5.454;2023-03-14T09:20:43;6.90;;;0.93;;
78732;SDS011;68056;52.530;5.454;2023-03-14T09:23:09;7.30;;;1.15;;
78732;SDS011;68056;52.530;5.454;2023-03-14T09:25:34;10.57;;;1.73;;
78732;SDS011;68056;52.530;5.454;2023-03-14T09:28:00;11.50;;;1.75;;
78732;SDS011;68056;52.530;5.454;2023-03-14T09:30:26;7.18;;;1.45;;
78732;SDS011;68056;52.530;5.454;2023-03-14T09:32:51;8.43;;;1.00;;
78732;SDS011;68056;52.530;5.454;2023-03-14T09:35:17;6.50;;;1.20;;
78732;SDS011;68056;52.530;5.454;2023-03-14T09:37:42;3.58;;;0.93;;
78732;SDS011;68056;52.530;5.454;2023-03-14T09:40:11;8.63;;;1.42;;
78732;SDS011;68056;52.530;5.454;2023-03-14T09:42:38;8.52;;;1.20;;
78732;SDS011;68056;52.530;5.454;2023-03-14T09:45:06;5.90;;;1.08;;
78732;SDS011;68056;52.530;5.454;2023-03-14T09:47:38;7.88;;;1.02;;
78732;SDS011;68056;52.530;5.454;2023-03-14T09:50:09;11.30;;;1.73;;
78732;SDS011;68056;52.530;5.454;2023-03-14T09:52:39;6.00;;;0.90;;
78732;SDS011;68056;52.530;5.454;2023-03-14T09:55:21;4.47;;;1.10;;
78732;SDS011;68056;52.530;5.454;2023-03-14T09:57:47;6.15;;;1.10;;
78732;SDS011;68056;52.530;5.454;2023-03-14T10:02:52;7.75;;;1.10;;
78732;SDS011;68056;52.530;5.454;2023-03-14T10:05:21;9.85;;;1.48;;
78732;SDS011;68056;52.530;5.454;2023-03-14T10:07:48;11.02;;;1.50;;
78732;SDS011;68056;52.530;5.454;2023-03-14T10:12:45;8.93;;;1.77;;
78732;SDS011;68056;52.530;5.454;2023-03-14T10:15:13;11.65;;;1.92;;
78732;SDS011;68056;52.530;5.454;2023-03-14T10:17:52;10.07;;;2.45;;
78732;SDS011;68056;52.530;5.454;2023-03-14T10:20:31;8.07;;;1.35;;
78732;SDS011;68056;52.530;5.454;2023-03-14T10:23:02;7.82;;;1.08;;
78732;SDS011;68056;52.530;5.454;2023-03-14T10:25:42;10.30;;;1.20;;
78732;SDS011;68056;52.530;5.454;2023-03-14T10:28:24;14.57;;;2.15;;
78732;SDS011;68056;52.530;5.454;2023-03-14T10:30:49;7.03;;;1.33;;
78732;SDS011;68056;52.530;5.454;2023-03-14T10:36:00;7.72;;;1.48;;
78732;SDS011;68056;52.530;5.454;2023-03-14T10:38:37;11.40;;;1.85;;
78732;SDS011;68056;52.530;5.454;2023-03-14T10:41:13;7.85;;;1.42;;
78732;SDS011;68056;52.530;5.454;2023-03-14T10:43:50;10.25;;;1.52;;
78732;SDS011;68056;52.530;5.454;2023-03-14T10:46:21;9.70;;;1.30;;
78732;SDS011;68056;52.530;5.454;2023-03-14T10:48:49;6.05;;;1.10;;
78732;SDS011;68056;52.530;5.454;2023-03-14T10:53:46;7.32;;;1.20;;
78732;SDS011;68056;52.530;5.454;2023-03-14T10:56:19;7.70;;;1.65;;
78732;SDS011;68056;52.530;5.454;2023-03-14T10:58:47;6.43;;;1.10;;
78732;SDS011;68056;52.530;5.454;2023-03-14T11:01:29;4.03;;;1.02;;
78732;SDS011;68056;52.530;5.454;2023-03-14T11:15:34;2.95;;;0.50;;
78732;SDS011;68056;52.530;5.454;2023-03-14T11:21:02;6.07;;;1.23;;
78732;SDS011;68056;52.530;5.454;2023-03-14T11:29:36;5.75;;;1.23;;
78732;SDS011;68056;52.530;5.454;2023-03-14T11:32:02;6.03;;;1.00;;
78732;SDS011;68056;52.530;5.454;2023-03-14T11:34:49;3.13;;;0.75;;
78732;SDS011;68056;52.530;5.454;2023-03-14T11:39:53;5.80;;;0.88;;
78732;SDS011;68056;52.530;5.454;2023-03-14T11:42:59;7.65;;;1.00;;
78732;SDS011;68056;52.530;5.454;2023-03-14T11:45:32;8.93;;;1.08;;
78732;SDS011;68056;52.530;5.454;2023-03-14T11:48:16;3.05;;;0.75;;
78732;SDS011;68056;52.530;5.454;2023-03-14T11:50:55;3.53;;;0.65;;
78732;SDS011;68056;52.530;5.454;2023-03-14T11:56:18;5.15;;;1.00;;
78732;SDS011;68056;52.530;5.454;2023-03-14T11:58:59;4.50;;;0.95;;
78732;SDS011;68056;52.530;5.454;2023-03-14T12:01:43;5.30;;;0.70;;
78732;SDS011;68056;52.530;5.454;2023-03-14T12:04:43;4.53;;;0.60;;
78732;SDS011;68056;52.530;5.454;2023-03-14T12:07:21;2.00;;;0.70;;
78732;SDS011;68056;52.530;5.454;2023-03-14T12:09:54;4.10;;;0.93;;
78732;SDS011;68056;52.530;5.454;2023-03-14T12:12:22;4.03;;;0.73;;
78732;SDS011;68056;52.530;5.454;2023-03-14T12:14:54;4.72;;;0.80;;
78732;SDS011;68056;52.530;5.454;2023-03-14T12:17:25;2.55;;;0.50;;
78732;SDS011;68056;52.530;5.454;2023-03-14T12:22:50;4.00;;;0.70;;
78732;SDS011;68056;52.530;5.454;2023-03-14T12:25:22;5.85;;;0.90;;
78732;SDS011;68056;52.530;5.454;2023-03-14T12:30:32;3.30;;;0.80;;
78732;SDS011;68056;52.530;5.454;2023-03-14T12:33:26;1.70;;;0.70;;
78732;SDS011;68056;52.530;5.454;2023-03-14T12:35:57;2.63;;;0.60;;
78732;SDS011;68056;52.530;5.454;2023-03-14T12:41:18;2.00;;;0.60;;
78732;SDS011;68056;52.530;5.454;2023-03-14T12:43:53;4.57;;;0.65;;
78732;SDS011;68056;52.530;5.454;2023-03-14T12:51:34;3.10;;;0.47;;
78732;SDS011;68056;52.530;5.454;2023-03-14T12:57:33;4.57;;;0.65;;
78732;SDS011;68056;52.530;5.454;2023-03-14T13:02:46;5.90;;;0.75;;
78732;SDS011;68056;52.530;5.454;2023-03-14T13:10:18;4.13;;;0.70;;
78732;SDS011;68056;52.530;5.454;2023-03-14T13:15:48;1.63;;;0.40;;
78732;SDS011;68056;52.530;5.454;2023-03-14T13:18:40;3.03;;;0.40;;
78732;SDS011;68056;52.530;5.454;2023-03-14T13:21:19;2.42;;;0.77;;
78732;SDS011;68056;52.530;5.454;2023-03-14T13:26:31;3.15;;;0.80;;
78732;SDS011;68056;52.530;5.454;2023-03-14T13:29:22;3.15;;;0.68;;
78732;SDS011;68056;52.530;5.454;2023-03-14T13:32:01;3.17;;;0.50;;
78732;SDS011;68056;52.530;5.454;2023-03-14T13:34:41;0.63;;;0.32;;
78732;SDS011;68056;52.530;5.454;2023-03-14T13:37:14;2.58;;;0.45;;
78732;SDS011;68056;52.530;5.454;2023-03-14T13:39:55;4.95;;;0.98;;
78732;SDS011;68056;52.530;5.454;2023-03-14T13:42:24;3.80;;;0.65;;
78732;SDS011;68056;52.530;5.454;2023-03-14T13:44:53;2.00;;;0.60;;
78732;SDS011;68056;52.530;5.454;2023-03-14T13:47:21;2.97;;;0.88;;
78732;SDS011;68056;52.530;5.454;2023-03-14T13:49:48;3.97;;;0.90;;
78732;SDS011;68056;52.530;5.454;2023-03-14T13:52:28;5.20;;;0.57;;
78732;SDS011;68056;52.530;5.454;2023-03-14T13:55:01;4.35;;;0.90;;
78732;SDS011;68056;52.530;5.454;2023-03-14T13:57:42;4.68;;;0.90;;
78732;SDS011;68056;52.530;5.454;2023-03-14T14:00:19;1.77;;;0.70;;
78732;SDS011;68056;52.530;5.454;2023-03-14T14:02:51;2.22;;;0.50;;
78732;SDS011;68056;52.530;5.454;2023-03-14T14:05:22;2.17;;;0.60;;
78732;SDS011;68056;52.530;5.454;2023-03-14T14:07:50;1.75;;;0.63;;
78732;SDS011;68056;52.530;5.454;2023-03-14T14:10:17;3.65;;;0.80;;
78732;SDS011;68056;52.530;5.454;2023-03-14T14:12:47;3.40;;;1.00;;
78732;SDS011;68056;52.530;5.454;2023-03-14T14:15:27;2.03;;;0.40;;
78732;SDS011;68056;52.530;5.454;2023-03-14T14:17:56;2.28;;;0.73;;
78732;SDS011;68056;52.530;5.454;2023-03-14T14:22:57;3.00;;;0.60;;
78732;SDS011;68056;52.530;5.454;2023-03-14T14:25:23;4.80;;;0.82;;
78732;SDS011;68056;52.530;5.454;2023-03-14T14:27:49;2.17;;;0.55;;
78732;SDS011;68056;52.530;5.454;2023-03-14T14:32:44;5.28;;;0.70;;
78732;SDS011;68056;52.530;5.454;2023-03-14T14:35:22;1.83;;;0.52;;
78732;SDS011;68056;52.530;5.454;2023-03-14T14:37:55;2.20;;;0.47;;
78732;SDS011;68056;52.530;5.454;2023-03-14T14:40:23;3.88;;;0.65;;
78732;SDS011;68056;52.530;5.454;2023-03-14T14:42:51;1.55;;;0.60;;
78732;SDS011;68056;52.530;5.454;2023-03-14T14:45:18;2.80;;;0.47;;
78732;SDS011;68056;52.530;5.454;2023-03-14T14:48:05;1.95;;;0.63;;
78732;SDS011;68056;52.530;5.454;2023-03-14T14:50:36;2.13;;;0.57;;
78732;SDS011;68056;52.530;5.454;2023-03-14T14:56:19;2.22;;;0.40;;
78732;SDS011;68056;52.530;5.454;2023-03-14T14:58:51;2.83;;;0.60;;
78732;SDS011;68056;52.530;5.454;2023-03-14T15:01:23;2.83;;;0.70;;
78732;SDS011;68056;52.530;5.454;2023-03-14T15:03:52;2.33;;;0.57;;
78732;SDS011;68056;52.530;5.454;2023-03-14T15:06:18;4.90;;;1.00;;
78732;SDS011;68056;52.530;5.454;2023-03-14T15:08:45;2.72;;;0.70;;
78732;SDS011;68056;52.530;5.454;2023-03-14T15:11:15;3.00;;;0.50;;
78732;SDS011;68056;52.530;5.454;2023-03-14T15:13:42;3.33;;;0.90;;
78732;SDS011;68056;52.530;5.454;2023-03-14T15:16:11;2.67;;;0.70;;
78732;SDS011;68056;52.530;5.454;2023-03-14T15:18:37;3.33;;;0.93;;
78732;SDS011;68056;52.530;5.454;2023-03-14T15:21:03;3.08;;;0.65;;
78732;SDS011;68056;52.530;5.454;2023-03-14T15:23:28;1.52;;;0.40;;
78732;SDS011;68056;52.530;5.454;2023-03-14T15:25:54;4.22;;;0.70;;
78732;SDS011;68056;52.530;5.454;2023-03-14T15:28:21;5.72;;;0.90;;
78732;SDS011;68056;52.530;5.454;2023-03-14T15:30:57;3.25;;;0.70;;
78732;SDS011;68056;52.530;5.454;2023-03-14T15:33:24;3.83;;;0.80;;
78732;SDS011;68056;52.530;5.454;2023-03-14T15:35:51;3.15;;;0.63;;
78732;SDS011;68056;52.530;5.454;2023-03-14T15:38:18;3.53;;;0.75;;
78732;SDS011;68056;52.530;5.454;2023-03-14T15:40:49;5.03;;;0.95;;
78732;SDS011;68056;52.530;5.454;2023-03-14T15:43:15;4.25;;;1.25;;
78732;SDS011;68056;52.530;5.454;2023-03-14T15:45:42;4.93;;;0.65;;
78732;SDS011;68056;52.530;5.454;2023-03-14T15:48:15;4.95;;;0.90;;
78732;SDS011;68056;52.530;5.454;2023-03-14T15:50:42;1.92;;;0.68;;
78732;SDS011;68056;52.530;5.454;2023-03-14T15:53:08;2.70;;;0.52;;
78732;SDS011;68056;52.530;5.454;2023-03-14T15:55:34;2.95;;;0.50;;
78732;SDS011;68056;52.530;5.454;2023-03-14T15:58:00;3.83;;;0.60;;
78732;SDS011;68056;52.530;5.454;2023-03-14T16:00:28;4.70;;;0.90;;
78732;SDS011;68056;52.530;5.454;2023-03-14T16:02:54;5.03;;;0.63;;
78732;SDS011;68056;52.530;5.454;2023-03-14T16:05:20;3.08;;;0.80;;
78732;SDS011;68056;52.530;5.454;2023-03-14T16:07:46;2.80;;;0.70;;
78732;SDS011;68056;52.530;5.454;2023-03-14T16:10:13;1.80;;;0.50;;
78732;SDS011;68056;52.530;5.454;2023-03-14T16:15:06;2.70;;;0.60;;
78732;SDS011;68056;52.530;5.454;2023-03-14T16:17:33;2.50;;;0.40;;
78732;SDS011;68056;52.530;5.454;2023-03-14T16:19:59;2.60;;;0.60;;